events-overview

Kinetic Sprint

 

Relays

Lake Anna State Park - Spotsylvania, VA 5/10/2009 10:00AM

** Results are for the private use of participants and are the Intellectual Property of Set Up Events. Unauthorized use of these results is prohibited.

Place T Bib Team Rank SWIM Rank T1 Rank BIKE Rank T2 Rank RUN PENALTY TIME DQ
1X647GREEN MACHINE200:13:13300:01:13100:50:422000:01:37300:23:19 01:30:01 
2X656SURF 2 TURF900:15:141000:01:28200:52:301700:01:28600:27:37 01:38:15 
3X648LA POULE MINCE400:13:30400:01:14501:00:101600:01:05200:23:16 01:39:14 
4X657TEAM BECHEROVKA1200:16:29900:01:24601:00:52100:00:35900:28:50 01:48:08 
5X659TEAM D1000:15:232000:03:14701:00:54500:00:441200:29:45 01:49:57 
6X649MAYA1400:16:43500:01:14801:02:04200:00:421100:29:18 01:49:59 
7X650ONE UNDER 50300:13:23600:01:201001:08:221100:00:55500:26:23 01:50:23 
8X646GIRLS4CHRIST1700:18:382100:03:53300:53:031500:01:021800:38:14 01:54:49 
9X644CMC1600:17:47100:01:11901:07:50600:00:46800:27:53 01:55:24 
10X651RICH HENNY600:13:59700:01:201801:22:301300:01:00100:21:22 02:00:10 
11X666ZOOM ZOOM1100:15:491800:01:421201:09:39900:00:511400:33:05 02:01:03 
12X662THE TRIO GUYS2200:43:17200:01:11400:53:291200:01:00400:23:49 02:02:45 
13X663TRI UNIFY700:15:071600:01:391401:16:161000:00:551000:29:00 02:02:56 
14X665UP TO MICHJEFFS1900:20:32800:01:231101:09:28800:00:481300:32:07 02:04:16 
15X664TRI-TRI AGAIN500:13:471400:01:361701:21:09300:00:43700:27:39 02:04:51 
16X645DANNIN800:15:121700:01:421301:13:20400:00:431900:39:10 02:10:05 
17X6432 GUYZ AND 2 GIRLZ100:11:411900:02:081901:24:061900:01:311500:35:42 02:15:07 
18X660TEAM Z BOPPERS2000:29:47         02:18:01Y
19X661THE SHARKS1800:19:391500:01:371601:20:00700:00:471700:36:43 02:18:45 
20X652RUNNING SHOES MAFIA1300:16:291100:01:311501:17:251400:01:022000:45:19 02:21:44 
21X654STEPPIN UP AND HELPIN OUT1500:16:521300:01:352001:40:051800:01:301600:36:15 02:36:15 
22X655STRONG AND UNSTOPPABLE!2100:30:201200:01:32         

** Results are for the private use of participants and are the Intellectual Property of Set Up Events. Unauthorized use of these results is prohibited.